Time;durP1;ratioP1;P1;durP2;ratioP2;P2;SDS_P1;SDS_P2;PMS_P1;PMS_P2;Temp;Humidity;BMP_temperature;BMP_pressure;BME280_temperature;BME280_humidity;BME280_pressure;Samples;Min_cycle;Max_cycle;Signal;HPM_P1;HPM_P2
2021/10/08 00:01:35;;;;;;;23.55;16.00;;;14.30;83.10;;;14.03;68.64;95821.41;5039291;28;20641;-80
2021/10/08 00:04:03;;;;;;;27.15;17.20;;;14.40;83.20;;;14.08;68.77;95821.63;5030732;28;20795;-79
2021/10/08 00:06:31;;;;;;;22.13;16.08;;;14.30;83.10;;;14.08;68.82;95823.47;5022120;28;20223;-80
2021/10/08 00:08:59;;;;;;;20.15;15.13;;;14.40;83.20;;;14.09;68.65;95823.28;5032781;28;20782;-79
2021/10/08 00:11:26;;;;;;;21.27;15.88;;;14.40;83.10;;;14.10;68.81;95824.13;5067025;28;20215;-80
2021/10/08 00:13:54;;;;;;;22.08;16.00;;;14.40;83.10;;;14.10;68.99;95818.84;5052559;28;20591;-80
2021/10/08 00:16:21;;;;;;;22.85;17.35;;;14.40;83.10;;;14.08;68.83;95816.38;5040719;28;20798;-78
2021/10/08 00:18:49;;;;;;;21.63;15.52;;;14.40;83.00;;;14.10;68.72;95824.13;5037018;28;20650;-78
2021/10/08 00:21:16;;;;;;;22.67;16.10;;;14.40;83.10;;;14.09;68.72;95819.84;5020798;28;20242;-78
2021/10/08 00:23:44;;;;;;;23.85;17.77;;;14.40;83.00;;;14.09;68.67;95825.13;5032093;28;20203;-79
2021/10/08 00:26:11;;;;;;;25.73;17.73;;;14.40;83.00;;;14.08;68.57;95818.19;5050710;28;20239;-78
2021/10/08 00:28:39;;;;;;;24.08;16.55;;;14.50;83.00;;;14.07;68.58;95822.66;5030220;28;20638;-78
2021/10/08 00:31:06;;;;;;;25.27;18.15;;;14.50;83.80;;;14.08;68.56;95821.63;5053937;28;20612;-78
2021/10/08 00:33:34;;;;;;;36.80;25.92;;;14.40;83.00;;;14.06;68.91;95821.03;5036829;28;20233;-80
2021/10/08 00:36:03;;;;;;;38.40;29.13;;;14.40;82.90;;;14.02;68.71;95808.41;5021041;28;20223;-80
2021/10/08 00:38:40;;;;;;;46.35;34.53;;;14.40;83.00;;;14.08;68.70;95824.28;5037460;28;20222;-80
2021/10/08 00:41:08;;;;;;;39.83;29.42;;;14.40;82.90;;;14.08;68.68;95820.84;5032799;28;20223;-79
2021/10/08 00:43:36;;;;;;;30.75;23.20;;;14.40;82.90;;;14.08;68.86;95820.84;5052419;28;20210;-80
2021/10/08 00:46:04;;;;;;;28.27;18.95;;;14.40;82.90;;;14.08;68.48;95820.84;5036180;28;20314;-79
2021/10/08 00:48:38;;;;;;;27.60;19.65;;;14.40;82.90;;;14.01;68.78;95810.25;5053918;28;20571;-80
2021/10/08 00:51:05;;;;;;;36.40;25.13;;;14.40;82.80;;;14.05;68.56;95813.31;5048186;28;20212;-80
2021/10/08 00:53:33;;;;;;;34.13;26.17;;;14.40;82.80;;;14.03;68.56;95815.31;5016964;28;20200;-80
2021/10/08 00:56:01;;;;;;;33.10;24.10;;;14.40;82.70;;;14.01;68.44;95815.53;5046623;28;20684;-80
2021/10/08 00:58:30;;;;;;;31.17;24.45;;;14.40;82.80;;;13.99;68.74;95808.78;5052406;28;20200;-80
2021/10/08 01:00:57;;;;;;;31.67;23.80;;;14.40;82.70;;;14.01;68.82;95809.41;5052878;28;20288;-81
2021/10/08 01:03:25;;;;;;;32.72;25.13;;;14.40;82.70;;;13.98;68.56;95813.25;5036489;28;20208;-81
2021/10/08 01:05:53;;;;;;;33.03;23.70;;;14.30;82.70;;;13.95;68.57;95803.06;5035937;28;20296;-79
2021/10/08 01:08:20;;;;;;;29.85;22.75;;;14.40;82.70;;;13.98;68.97;95813.25;5036102;28;20231;-80
2021/10/08 01:10:48;;;;;;;29.40;21.00;;;14.40;82.80;;;13.97;68.82;95811.63;5035640;28;20223;-80
2021/10/08 01:13:18;;;;;;;30.73;22.88;;;14.40;82.80;;;13.91;68.86;95813.22;5035757;28;20200;-80
2021/10/08 01:15:46;;;;;;;28.63;20.70;;;14.40;82.70;;;13.92;68.62;95814.81;5035122;28;20200;-79
2021/10/08 01:18:14;;;;;;;26.45;20.00;;;14.30;82.50;;;13.87;68.46;95808.50;5035211;28;20241;-81
2021/10/08 01:20:41;;;;;;;27.65;20.73;;;14.30;82.50;;;13.83;68.52;95809.88;5051622;28;20203;-80
2021/10/08 01:23:13;;;;;;;32.60;22.45;;;14.30;82.50;;;13.79;68.72;95803.34;5049224;28;20301;-79
2021/10/08 01:25:51;;;;;;;32.65;23.55;;;14.30;82.60;;;13.79;68.58;95808.63;5034530;28;20228;-80
2021/10/08 01:28:24;;;;;;;29.15;21.50;;;14.20;82.50;;;13.73;68.56;95807.56;5054333;28;20677;-80
2021/10/08 01:30:52;;;;;;;30.35;21.42;;;14.20;82.50;;;13.73;68.62;95811.03;5018794;28;20215;-80
2021/10/08 01:33:33;;;;;;;29.48;21.23;;;14.20;82.50;;;13.68;68.59;95810.75;5041722;28;20199;-81
2021/10/08 01:36:01;;;;;;;27.98;21.45;;;14.20;82.50;;;13.63;68.59;95807.88;5035894;28;20269;-81
2021/10/08 01:38:28;;;;;;;29.23;20.63;;;14.10;82.40;;;13.64;68.81;95809.50;5035965;28;20286;-80
2021/10/08 01:40:56;;;;;;;27.02;19.45;;;14.00;82.50;;;13.61;68.85;95810.72;5035949;28;20215;-80
2021/10/08 01:43:24;;;;;;;27.63;19.08;;;14.10;82.60;;;13.61;69.02;95812.53;5031092;28;20595;-81
2021/10/08 01:45:55;;;;;;;31.13;20.42;;;14.10;82.80;;;13.63;69.00;95817.63;5049463;28;20242;-80
2021/10/08 01:48:31;;;;;;;27.95;18.38;;;14.10;82.80;;;13.64;68.88;95813.97;5052188;28;20199;-81
2021/10/08 01:50:59;;;;;;;27.73;19.77;;;14.00;82.80;;;13.64;68.50;95811.34;5049214;28;20636;-80
2021/10/08 01:53:26;;;;;;;30.40;20.13;;;14.10;82.80;;;13.64;68.73;95814.78;5035596;28;20198;-81
2021/10/08 01:55:55;;;;;;;30.83;21.52;;;14.10;82.80;;;13.64;69.13;95811.34;5018679;28;20222;-80
2021/10/08 01:58:26;;;;;;;33.30;23.08;;;14.00;82.70;;;13.65;68.67;95815.63;5036003;28;20195;-81
2021/10/08 02:00:55;;;;;;;32.17;22.55;;;14.10;82.90;;;13.63;68.69;95807.88;5050606;28;20215;-80
2021/10/08 02:03:29;;;;;;;32.08;22.52;;;14.10;82.90;;;13.59;68.76;95806.63;5033512;28;20741;-81
2021/10/08 02:05:57;;;;;;;32.42;23.45;;;14.00;82.70;;;13.62;68.88;95819.41;5074051;28;21426;-80
2021/10/08 02:08:26;;;;;;;32.15;23.02;;;14.00;82.70;;;13.57;68.63;95813.91;5015281;28;20200;-80
2021/10/08 02:10:58;;;;;;;31.08;21.90;;;14.00;82.70;;;13.54;68.92;95807.19;5030508;28;20254;-80
2021/10/08 02:13:26;;;;;;;27.02;19.10;;;14.10;82.60;;;13.55;68.72;95816.72;5047907;28;20649;-81
2021/10/08 02:15:53;;;;;;;27.10;20.25;;;14.00;82.50;;;13.53;68.16;95812.66;5047528;28;20227;-79
2021/10/08 02:18:21;;;;;;;28.85;19.48;;;14.00;82.40;;;13.48;68.67;95815.06;5031053;28;20229;-79
2021/10/08 02:20:48;;;;;;;32.58;20.55;;;14.00;82.40;;;13.40;68.52;95819.44;5030001;28;20207;-79
2021/10/08 02:23:15;;;;;;;28.75;20.40;;;13.90;82.30;;;13.41;68.44;95810.50;5031708;28;20214;-79
2021/10/08 02:25:47;;;;;;;30.67;20.70;;;13.90;82.40;;;13.39;68.70;95817.78;5015686;28;20192;-80
2021/10/08 02:28:15;;;;;;;27.92;19.88;;;13.90;82.40;;;13.38;68.75;95818.78;5056074;28;20277;-79
2021/10/08 02:30:44;;;;;;;27.67;19.48;;;13.90;82.50;;;13.36;68.94;95823.41;5046924;28;20250;-79
2021/10/08 02:33:13;;;;;;;25.73;18.85;;;13.80;82.50;;;13.38;68.75;95823.25;5040825;28;20774;-79
2021/10/08 02:35:40;;;;;;;28.45;20.10;;;13.80;82.50;;;13.37;68.99;95822.41;4999553;28;20274;-78
2021/10/08 02:38:07;;;;;;;27.45;18.65;;;13.80;82.60;;;13.37;68.81;95818.97;5048298;28;20672;-78
2021/10/08 02:40:35;;;;;;;25.35;18.70;;;13.80;82.60;;;13.38;68.63;95824.06;5031124;28;20253;-79
2021/10/08 02:43:02;;;;;;;25.98;17.75;;;13.80;82.60;;;13.35;68.71;95816.50;5031672;28;20194;-78
2021/10/08 02:45:30;;;;;;;28.05;18.75;;;13.70;82.60;;;13.40;68.88;95818.59;5036834;28;20219;-78
2021/10/08 02:47:58;;;;;;;30.75;20.00;;;13.80;82.70;;;13.41;68.87;95818.41;5016074;28;20235;-79
2021/10/08 02:50:28;;;;;;;27.58;18.67;;;13.70;82.70;;;13.38;68.93;95813.53;5010775;28;20287;-79
2021/10/08 02:52:56;;;;;;;26.83;18.95;;;13.80;82.80;;;13.44;69.06;95825.16;5008585;28;20198;-79
2021/10/08 02:55:23;;;;;;;29.50;20.73;;;13.90;82.90;;;13.48;68.80;95828.22;5045587;28;20210;-78
2021/10/08 02:57:50;;;;;;;26.98;18.63;;;13.80;82.80;;;13.48;68.88;95823.75;5032746;28;20215;-78
2021/10/08 03:00:18;;;;;;;25.48;18.23;;;13.80;82.80;;;13.52;68.96;95826.84;5037881;28;20211;-79
2021/10/08 03:02:46;;;;;;;23.05;16.10;;;13.80;82.70;;;13.51;68.94;95828.66;5036898;28;20219;-78
2021/10/08 03:05:15;;;;;;;22.30;16.50;;;13.80;82.50;;;13.51;68.68;95827.84;5050180;28;20568;-78
2021/10/08 03:07:44;;;;;;;23.25;15.60;;;13.90;82.30;;;13.51;68.22;95827.84;5033132;28;20223;-79
2021/10/08 03:10:20;;;;;;;21.38;14.95;;;13.90;82.10;;;13.47;68.10;95821.31;5049045;28;20195;-78
2021/10/08 03:12:48;;;;;;;21.38;15.60;;;13.80;81.80;;;13.48;68.04;95825.59;5033463;28;20589;-78
2021/10/08 03:15:16;;;;;;;23.60;15.70;;;13.80;81.70;;;13.43;67.86;95828.78;5048079;28;20195;-80
2021/10/08 03:17:44;;;;;;;22.35;15.55;;;13.90;81.70;;;13.43;68.01;95831.41;5030049;28;20223;-78
2021/10/08 03:20:12;;;;;;;21.98;15.85;;;13.80;81.50;;;13.40;67.80;95834.41;5031823;28;20199;-79
2021/10/08 03:22:40;;;;;;;21.60;15.68;;;13.80;81.50;;;13.38;67.69;95828.53;5059555;28;20224;-79
2021/10/08 03:25:09;;;;;;;23.90;16.05;;;13.80;81.30;;;13.35;67.44;95834.94;5046692;28;20666;-79
2021/10/08 03:27:39;;;;;;;18.33;14.18;;;13.80;81.20;;;13.29;67.47;95828.59;5046767;28;20219;-79
2021/10/08 03:30:14;;;;;;;19.88;14.73;;;13.80;81.10;;;13.30;67.67;95832.03;5030280;28;20567;-79
2021/10/08 03:32:42;;;;;;;19.60;14.10;;;13.70;81.00;;;13.25;67.61;95826.53;5031125;28;20225;-79
2021/10/08 03:35:10;;;;;;;19.52;14.13;;;13.70;81.10;;;13.25;67.35;95834.44;5059779;28;20198;-79
2021/10/08 03:38:02;;;;;;;20.08;14.77;;;13.60;81.00;;;13.24;67.63;95841.53;5030108;28;20207;-79
2021/10/08 03:40:31;;;;;;;18.35;14.55;;;13.60;81.00;;;13.20;67.61;95842.88;5049211;28;20184;-79
2021/10/08 03:43:01;;;;;;;20.67;14.90;;;13.70;81.00;;;13.18;67.46;95847.50;5047877;28;20614;-79
2021/10/08 03:45:44;;;;;;;24.65;16.52;;;13.60;81.00;;;13.17;67.38;95838.00;5047934;28;20261;-80
2021/10/08 03:51:01;;;;;;;22.10;14.43;;;13.60;80.90;;;13.10;67.64;95843.16;5057659;28;20219;-79
2021/10/08 03:53:30;;;;;;;17.58;13.93;;;13.60;80.80;;;13.09;67.37;95844.16;5045893;28;20207;-80
2021/10/08 03:55:57;;;;;;;44.35;27.20;;;13.50;80.70;;;13.09;67.26;95843.38;5050820;28;20238;-79
2021/10/08 03:58:25;;;;;;;133.98;100.57;;;13.60;80.80;;;13.07;67.32;95838.28;5034428;28;20717;-80
2021/10/08 04:00:53;;;;;;;64.40;52.95;;;13.50;80.70;;;13.07;66.96;95840.09;5038720;28;20212;-81
2021/10/08 04:03:23;;;;;;;106.13;90.38;;;13.50;80.60;;;13.00;66.90;95840.03;5064292;28;20211;-80
2021/10/08 04:05:52;;;;;;;60.28;51.10;;;13.50;80.60;;;13.00;67.20;95844.47;5036629;28;20269;-81
2021/10/08 04:08:21;;;;;;;36.50;32.03;;;13.50;80.70;;;13.01;66.91;95844.28;5036740;28;20666;-80
2021/10/08 04:10:52;;;;;;;27.20;21.77;;;13.40;80.60;;;12.99;66.99;95835.75;5046780;28;20223;-81
2021/10/08 04:13:19;;;;;;;21.80;17.33;;;13.40;80.60;;;13.00;67.22;95844.47;5020110;28;20286;-80
2021/10/08 04:15:46;;;;;;;21.02;15.35;;;13.40;80.60;;;12.99;66.99;95848.91;5052457;28;20191;-80
2021/10/08 04:18:13;;;;;;;17.95;14.07;;;13.40;80.70;;;12.98;67.12;95853.34;5043939;28;20208;-79
2021/10/08 04:20:41;;;;;;;16.50;12.85;;;13.40;80.80;;;12.98;67.24;95855.19;5035176;28;20634;-80
2021/10/08 04:23:12;;;;;;;19.52;14.93;;;13.40;80.90;;;12.97;67.22;95845.66;5050304;28;20204;-79
2021/10/08 04:25:40;;;;;;;20.88;14.02;;;13.50;80.80;;;12.95;67.16;95848.47;5035331;28;20574;-79
2021/10/08 04:28:08;;;;;;;20.70;14.48;;;13.40;80.60;;;12.93;67.20;95850.47;5053141;28;20227;-80
2021/10/08 04:30:37;;;;;;;18.73;14.30;;;13.30;80.60;;;12.91;67.13;95849.00;5035471;28;20230;-80
2021/10/08 04:33:17;;;;;;;22.15;14.75;;;13.30;80.50;;;12.88;66.93;95850.19;5070613;28;20203;-81
2021/10/08 04:35:50;;;;;;;20.35;13.93;;;13.30;80.20;;;12.85;66.91;95855.81;5021855;28;20303;-81
2021/10/08 04:38:19;;;;;;;16.92;13.98;;;13.40;80.30;;;12.83;66.64;95855.19;5036772;28;20238;-80
2021/10/08 04:40:48;;;;;;;18.48;14.57;;;13.30;80.20;;;12.80;66.74;95861.66;5037316;28;20214;-81
2021/10/08 04:43:16;;;;;;;17.67;14.32;;;13.20;80.20;;;12.75;66.79;95856.09;5035322;28;20628;-80
2021/10/08 04:45:44;;;;;;;21.25;14.77;;;13.30;80.30;;;12.76;66.81;95863.00;5036606;28;20223;-81
2021/10/08 04:48:12;;;;;;;21.38;13.75;;;13.20;80.10;;;12.72;66.99;95861.72;5036921;28;20311;-81
2021/10/08 04:50:40;;;;;;;19.63;14.48;;;13.30;80.10;;;12.70;66.75;95860.28;5018133;28;20203;-80
2021/10/08 04:53:26;;;;;;;18.05;13.68;;;13.20;80.10;;;12.67;66.69;95866.72;5052538;28;20657;-81
2021/10/08 04:55:56;;;;;;;22.95;15.60;;;13.10;79.80;;;12.65;66.69;95866.09;5051964;28;20223;-81
2021/10/08 04:58:24;;;;;;;27.20;19.13;;;13.10;80.10;;;12.60;66.53;95861.34;5036237;28;20247;-81
2021/10/08 05:00:55;;;;;;;32.58;22.55;;;13.10;80.10;;;12.59;66.74;95864.19;5037391;28;20242;-80
2021/10/08 05:03:23;;;;;;;34.67;22.85;;;13.10;80.10;;;12.56;66.76;95867.16;5036473;28;20714;-80
2021/10/08 05:05:52;;;;;;;31.45;22.40;;;13.00;80.00;;;12.53;66.68;95864.91;5036212;28;20223;-81
2021/10/08 05:08:33;;;;;;;26.10;18.50;;;13.10;80.10;;;12.47;66.72;95867.25;5023940;28;20242;-80
2021/10/08 05:11:02;;;;;;;24.45;17.45;;;13.00;80.00;;;12.45;67.02;95865.78;5052844;28;20219;-79
2021/10/08 05:13:30;;;;;;;22.73;17.67;;;13.00;80.00;;;12.41;66.87;95864.53;5011663;28;20203;-79
2021/10/08 05:15:58;;;;;;;23.50;15.70;;;12.90;80.00;;;12.39;66.91;95869.13;5035281;28;20227;-80
2021/10/08 05:18:26;;;;;;;19.63;14.52;;;12.90;80.10;;;12.33;66.83;95863.59;5030801;28;20295;-80
2021/10/08 05:20:54;;;;;;;17.92;13.45;;;12.90;80.10;;;12.33;66.68;95868.88;5022509;28;20284;-80
2021/10/08 05:23:23;;;;;;;16.55;12.70;;;12.80;80.00;;;12.29;66.75;95874.66;5019571;28;20292;-81
2021/10/08 05:25:51;;;;;;;21.30;13.10;;;12.80;80.00;;;12.24;66.92;95866.50;5035481;28;20283;-79
2021/10/08 05:28:19;;;;;;;17.60;12.10;;;12.80;80.10;;;12.25;67.14;95878.66;5019454;28;20225;-79
2021/10/08 05:30:47;;;;;;;15.82;13.20;;;12.80;80.30;;;12.23;67.15;95870.94;5036231;28;20230;-80
2021/10/08 05:33:17;;;;;;;18.70;12.75;;;12.70;80.40;;;12.25;67.37;95876.00;5020192;28;20199;-80
2021/10/08 05:35:45;;;;;;;20.65;13.27;;;12.70;80.50;;;12.27;67.50;95885.38;5020018;28;20199;-81
2021/10/08 05:38:12;;;;;;;27.40;15.38;;;12.70;80.60;;;12.28;67.36;95880.91;5019630;28;20199;-80
2021/10/08 05:40:40;;;;;;;26.52;15.40;;;12.70;80.60;;;12.31;67.11;95878.75;5035623;28;20191;-80
2021/10/08 05:43:07;;;;;;;28.95;16.30;;;12.70;80.50;;;12.30;67.14;95884.19;5016905;28;20465;-80
2021/10/08 05:45:40;;;;;;;22.45;15.57;;;12.70;80.50;;;12.30;66.89;95882.38;5032929;28;20199;-80
2021/10/08 05:48:08;;;;;;;21.73;14.38;;;12.70;80.40;;;12.27;66.87;95884.56;5052817;28;20314;-80
2021/10/08 05:50:35;;;;;;;19.80;13.88;;;12.70;80.30;;;12.26;66.61;95888.19;5031484;28;20204;-80
2021/10/08 05:53:06;;;;;;;20.73;15.43;;;12.70;80.20;;;12.20;66.52;95888.88;5048345;28;20230;-81
2021/10/08 05:55:35;;;;;;;29.45;20.30;;;12.70;80.10;;;12.19;66.67;95893.31;5032375;28;20242;-80
2021/10/08 05:58:03;;;;;;;24.83;18.70;;;12.60;80.10;;;12.18;66.82;95889.03;5032358;28;20582;-81
2021/10/08 06:00:31;;;;;;;25.33;17.00;;;12.60;80.20;;;12.19;66.88;95895.94;5065699;28;20246;-80
2021/10/08 06:02:58;;;;;;;25.55;16.90;;;12.60;80.40;;;12.21;67.00;95896.59;5048788;28;20202;-81
2021/10/08 06:05:26;;;;;;;22.85;16.08;;;12.60;80.60;;;12.24;67.36;95896.25;5063591;28;20204;-81
2021/10/08 06:07:54;;;;;;;23.65;15.52;;;12.60;80.80;;;12.34;67.28;95901.25;5048434;28;20227;-80
2021/10/08 06:10:24;;;;;;;21.05;14.60;;;12.60;81.00;;;12.41;67.45;95912.69;5047476;28;20663;-81
2021/10/08 06:12:51;;;;;;;21.75;15.43;;;12.70;81.20;;;12.49;67.45;95903.91;5048416;28;20760;-82
2021/10/08 06:15:19;;;;;;;20.98;15.50;;;12.80;81.30;;;12.57;67.17;95905.63;5015578;28;20235;-80
2021/10/08 06:17:48;;;;;;;24.10;16.63;;;12.80;81.20;;;12.63;67.08;95903.13;5032167;28;20781;-79
2021/10/08 06:20:17;;;;;;;25.35;15.43;;;12.90;81.30;;;12.67;66.88;95913.28;5068668;28;20269;-79
2021/10/08 06:22:47;;;;;;;21.98;16.40;;;12.90;81.00;;;12.61;66.53;95904.31;5049673;28;20306;-80
2021/10/08 06:25:19;;;;;;;21.45;15.63;;;13.00;80.70;;;12.60;66.58;95907.94;5038900;28;20195;-80
2021/10/08 06:27:51;;;;;;;24.08;16.30;;;13.00;80.50;;;12.58;66.49;95917.81;5033443;28;20219;-81
2021/10/08 06:30:22;;;;;;;25.63;16.45;;;13.10;80.40;;;12.52;66.53;95921.16;5037178;28;20219;-79
2021/10/08 06:32:50;;;;;;;21.90;16.55;;;13.00;80.10;;;12.44;66.50;95919.44;5050265;28;20218;-81
2021/10/08 06:35:20;;;;;;;21.63;15.70;;;13.00;79.90;;;12.37;66.52;95915.88;5015560;28;20684;-80
2021/10/08 06:37:49;;;;;;;26.65;17.42;;;13.00;79.80;;;12.32;66.24;95919.03;5015485;28;20231;-80
2021/10/08 06:40:16;;;;;;;25.20;15.68;;;12.90;79.70;;;12.25;66.25;95918.91;5033367;28;20204;-80
2021/10/08 06:42:44;;;;;;;23.63;15.60;;;12.80;79.60;;;12.21;66.57;95919.47;5031623;28;20272;-80
2021/10/08 06:45:43;;;;;;;20.75;15.15;;;12.90;79.70;;;12.20;66.49;95934.41;5040549;28;20200;-81
2021/10/08 06:48:15;;;;;;;20.23;15.32;;;12.80;79.80;;;12.21;66.55;95930.78;5051250;28;20238;-80
2021/10/08 06:50:45;;;;;;;22.05;14.23;;;12.70;79.80;;;12.23;66.79;95936.69;5035077;28;20683;-80
2021/10/08 06:53:15;;;;;;;24.05;14.68;;;12.70;80.00;;;12.25;66.79;95936.50;5032767;28;20199;-79
2021/10/08 06:55:43;;;;;;;21.75;14.80;;;12.70;80.00;;;12.29;66.76;95938.63;5028174;28;20214;-80
2021/10/08 06:58:13;;;;;;;21.40;15.20;;;12.70;80.20;;;12.32;66.96;95930.34;5016255;28;20195;-81
2021/10/08 07:00:41;;;;;;;21.05;14.30;;;12.70;80.30;;;12.43;66.40;95934.38;5033396;28;20249;-80
2021/10/08 07:03:10;;;;;;;21.30;14.82;;;12.70;80.20;;;12.47;66.73;95943.56;5034220;28;20199;-80
2021/10/08 07:05:41;;;;;;;21.25;14.70;;;12.80;80.20;;;12.48;66.29;95937.28;5034195;28;20222;-80
2021/10/08 07:08:09;;;;;;;22.88;14.52;;;12.80;80.20;;;12.55;66.25;95941.84;5059806;28;20601;-79
2021/10/08 07:10:38;;;;;;;20.40;13.73;;;12.90;80.20;;;12.58;66.17;95947.56;5034673;28;20225;-80
2021/10/08 07:13:07;;;;;;;19.38;13.48;;;12.90;80.10;;;12.63;66.56;95945.22;5033270;28;20649;-79
2021/10/08 07:15:35;;;;;;;18.05;13.30;;;12.90;80.10;;;12.73;66.02;95947.59;5033643;28;20736;-80
2021/10/08 07:18:03;;;;;;;21.00;13.13;;;13.00;80.10;;;12.84;66.20;95946.34;5042074;28;20195;-80
2021/10/08 07:20:32;;;;;;;19.27;13.45;;;13.00;80.30;;;12.95;66.36;95945.06;5050544;28;20630;-80
2021/10/08 07:23:01;;;;;;;24.75;13.60;;;13.10;80.50;;;13.10;66.39;95940.63;5070824;28;20207;-80
2021/10/08 07:25:30;;;;;;;19.40;13.15;;;13.10;80.60;;;13.27;66.15;95943.88;5037797;28;20280;-81
2021/10/08 07:27:58;;;;;;;20.02;13.10;;;13.30;80.70;;;13.42;65.63;95958.91;5056058;28;20215;-81
2021/10/08 07:30:25;;;;;;;24.13;14.30;;;13.40;80.50;;;13.44;65.15;95949.00;5018589;28;20196;-79
2021/10/08 07:32:52;;;;;;;22.73;13.07;;;13.50;80.20;;;13.49;65.03;95951.91;5034835;28;20230;-79
2021/10/08 07:35:20;;;;;;;21.77;13.68;;;13.50;79.80;;;13.47;64.99;95953.88;5038459;28;20191;-79
2021/10/08 07:37:47;;;;;;;24.38;13.35;;;13.60;79.60;;;13.41;64.50;95946.72;5037222;28;20590;-80
2021/10/08 07:40:15;;;;;;;21.15;13.77;;;13.60;79.30;;;13.42;64.89;95962.34;5053498;28;20199;-80
2021/10/08 07:42:43;;;;;;;20.52;13.30;;;13.70;79.20;;;13.40;65.10;95958.25;5078989;28;20235;-79
2021/10/08 07:45:12;;;;;;;20.38;13.32;;;13.70;79.30;;;13.45;65.10;95964.63;5017899;28;20285;-81
2021/10/08 07:47:39;;;;;;;23.55;15.63;;;13.60;79.30;;;13.51;65.02;95963.09;5034255;28;20228;-80
2021/10/08 07:50:09;;;;;;;18.33;14.18;;;13.70;79.50;;;13.56;65.24;95967.78;5054099;28;20200;-80
2021/10/08 07:52:37;;;;;;;19.02;13.38;;;13.70;79.50;;;13.66;65.11;95967.50;5036694;28;20273;-81
2021/10/08 07:55:06;;;;;;;18.23;12.32;;;13.80;79.70;;;13.73;65.05;95966.59;5053850;28;20258;-80
2021/10/08 07:57:36;;;;;;;19.92;12.65;;;13.80;79.40;;;13.77;64.80;95967.03;5036786;28;20227;-80
2021/10/08 08:00:08;;;;;;;19.08;12.13;;;13.90;79.40;;;13.82;64.43;95971.72;5054312;28;20631;-79
2021/10/08 08:02:41;;;;;;;17.95;12.05;;;13.90;79.00;;;13.84;64.21;95965.28;5017745;28;20289;-80
2021/10/08 08:05:10;;;;;;;23.05;12.65;;;14.00;79.20;;;13.87;64.50;95967.53;5053379;28;20195;-81
2021/10/08 08:07:38;;;;;;;20.92;13.52;;;14.00;79.10;;;13.90;64.57;95964.53;5052612;28;20711;-80
2021/10/08 08:10:09;;;;;;;19.75;13.18;;;14.00;79.10;;;13.94;63.89;95967.63;5036701;28;20195;-81
2021/10/08 08:12:37;;;;;;;21.10;13.70;;;14.10;78.90;;;13.95;63.53;95965.78;5034952;28;20220;-80
2021/10/08 08:15:06;;;;;;;21.80;13.77;;;14.20;78.70;;;14.00;63.97;95973.94;5087416;28;20612;-80
2021/10/08 08:17:33;;;;;;;20.92;13.05;;;14.10;79.30;;;14.03;63.78;95969.13;5036920;28;20231;-81
2021/10/08 08:20:02;;;;;;;23.63;14.98;;;14.20;78.80;;;14.13;63.74;95974.09;5035008;28;20217;-81
2021/10/08 08:22:29;;;;;;;22.45;14.27;;;14.20;78.90;;;14.21;63.59;95975.81;5051327;28;20242;-80
2021/10/08 08:24:56;;;;;;;24.40;16.30;;;14.30;78.90;;;14.30;63.08;95976.50;5051132;28;20306;-81
2021/10/08 08:27:25;;;;;;;22.27;14.13;;;14.40;78.80;;;14.40;63.82;95969.06;5051944;28;20207;-81
2021/10/08 08:29:53;;;;;;;18.92;13.20;;;14.40;78.70;;;14.46;63.76;95964.88;5019965;28;20210;-80
2021/10/08 08:32:20;;;;;;;20.95;14.63;;;14.50;78.70;;;14.56;63.27;95967.97;5052774;28;20846;-80
2021/10/08 08:34:47;;;;;;;21.48;15.38;;;14.50;78.50;;;14.58;63.30;95961.50;5018310;28;20237;-80
2021/10/08 08:37:15;;;;;;;20.58;15.48;;;14.70;78.30;;;14.55;63.32;95961.91;5036933;28;20227;-82
2021/10/08 08:39:44;;;;;;;19.63;15.40;;;14.70;78.30;;;14.62;62.89;95961.94;5037342;28;20665;-82
2021/10/08 08:42:11;;;;;;;23.38;15.15;;;14.70;77.90;;;14.64;63.10;95959.94;5037336;28;20273;-81
2021/10/08 08:44:39;;;;;;;27.00;14.45;;;14.80;78.00;;;14.71;63.20;95966.09;5070199;28;20192;-80
2021/10/08 08:47:06;;;;;;;23.55;14.43;;;14.80;78.00;;;14.76;62.99;95962.06;5036784;28;20712;-81
2021/10/08 08:49:33;;;;;;;23.30;15.07;;;14.80;78.00;;;14.85;62.43;95959.09;5036701;28;20233;-81
2021/10/08 08:52:01;;;;;;;21.15;14.55;;;14.90;78.10;;;14.93;62.69;95966.06;5054372;28;20212;-81
2021/10/08 08:54:29;;;;;;;19.45;13.68;;;14.90;78.10;;;15.01;62.41;95963.28;5037138;28;20206;-81
2021/10/08 08:56:56;;;;;;;22.17;16.02;;;15.00;78.60;;;15.16;62.95;95965.81;5020416;28;20265;-81
2021/10/08 08:59:23;;;;;;;20.75;14.73;;;15.10;78.20;;;15.27;62.43;95960.97;5036948;28;20211;-80
2021/10/08 09:02:04;;;;;;;20.42;14.43;;;15.10;78.20;;;15.43;62.47;95971.25;5036423;28;20240;-82
2021/10/08 09:04:33;;;;;;;20.95;15.35;;;15.20;78.20;;;15.52;62.02;95974.53;5020387;28;20305;-81
2021/10/08 09:07:01;;;;;;;23.17;14.80;;;15.30;78.40;;;15.61;62.32;95962.78;5036078;28;20317;-82
2021/10/08 09:09:28;;;;;;;23.92;13.40;;;15.40;78.40;;;15.81;62.04;95968.13;5036492;28;20297;-80
2021/10/08 09:11:56;;;;;;;20.08;13.20;;;15.60;78.60;;;15.94;61.85;95964.75;5036869;28;20235;-82
2021/10/08 09:14:32;;;;;;;18.92;13.50;;;15.70;78.60;;;16.07;62.13;95965.78;5052888;28;20199;-82
2021/10/08 09:17:17;;;;;;;19.67;13.63;;;15.80;78.00;;;16.13;61.76;95960.50;5036321;28;20246;-81
2021/10/08 09:19:51;;;;;;;20.95;14.02;;;15.90;77.10;;;16.17;61.28;95969.69;5047712;28;20203;-81
2021/10/08 09:22:29;;;;;;;20.30;13.50;;;16.00;76.90;;;16.25;61.54;95967.88;5039338;28;20306;-80
2021/10/08 09:25:20;;;;;;;17.67;13.35;;;16.20;77.40;;;16.32;61.56;95971.34;5036700;28;20499;-81
2021/10/08 09:28:01;;;;;;;19.85;13.80;;;16.30;76.80;;;16.31;61.38;95975.00;5052392;28;20227;-81
2021/10/08 09:30:40;;;;;;;21.92;13.68;;;16.20;77.00;;;16.24;60.71;95971.53;5036585;28;20195;-81
2021/10/08 09:33:13;;;;;;;19.05;13.00;;;16.30;77.00;;;16.21;61.42;95971.91;5036179;28;20199;-81
2021/10/08 09:35:41;;;;;;;20.63;14.00;;;16.40;76.70;;;16.25;60.95;95971.31;5019798;28;20586;-81
2021/10/08 09:38:15;;;;;;;24.90;15.05;;;16.30;76.90;;;16.35;61.33;95968.28;5018428;28;20199;-80
2021/10/08 09:40:51;;;;;;;18.15;12.90;;;16.30;77.00;;;16.48;60.94;95967.50;5052248;28;20596;-81
2021/10/08 09:43:31;;;;;;;18.27;12.55;;;16.40;77.00;;;16.59;61.16;95977.47;5052133;28;20203;-81
2021/10/08 09:46:04;;;;;;;20.10;13.27;;;16.50;76.60;;;16.65;60.79;95967.91;5034953;28;20211;-82
2021/10/08 09:48:31;;;;;;;22.25;14.40;;;16.50;76.60;;;16.64;60.04;95967.06;5019632;28;20273;-82
2021/10/08 09:51:17;;;;;;;18.42;13.48;;;16.60;77.30;;;16.60;60.64;95968.50;5052841;28;20268;-81
2021/10/08 09:53:50;;;;;;;17.58;13.23;;;16.60;75.50;;;16.57;60.10;95973.41;5067251;28;20204;-82
2021/10/08 09:56:32;;;;;;;19.65;13.50;;;16.60;75.60;;;16.46;60.18;95969.50;5063929;28;20216;-81
2021/10/08 09:59:01;;;;;;;18.77;12.88;;;16.60;75.30;;;16.40;60.20;95965.03;5014739;28;20681;-82
2021/10/08 10:01:32;;;;;;;17.92;12.95;;;16.70;76.00;;;16.39;60.31;95973.97;5032174;28;20311;-82
2021/10/08 10:04:01;;;;;;;20.20;13.73;;;16.60;76.80;;;16.49;60.68;95969.13;5033694;28;20653;-80
2021/10/08 10:06:28;;;;;;;18.63;13.23;;;16.60;76.40;;;16.60;60.86;95965.84;5051998;28;20298;-81
2021/10/08 10:08:55;;;;;;;21.10;15.98;;;16.70;76.70;;;16.79;60.92;95966.84;5050590;28;20219;-81
2021/10/08 10:11:26;;;;;;;21.45;15.82;;;16.70;76.80;;;16.89;60.18;95961.13;5038532;28;20302;-81
2021/10/08 10:13:58;;;;;;;18.75;13.50;;;16.80;76.40;;;16.96;60.15;95971.78;5025795;28;20202;-80
2021/10/08 10:16:30;;;;;;;16.42;13.35;;;16.80;76.00;;;16.92;59.82;95963.41;5052113;28;20595;-80
2021/10/08 10:19:00;;;;;;;20.05;13.05;;;16.90;75.70;;;16.79;59.46;95958.09;5033155;28;20203;-80